Time;durP1;ratioP1;P1;durP2;ratioP2;P2;SDS_P1;SDS_P2;PMS_P1;PMS_P2;Temp;Humidity;BMP_temperature;BMP_pressure;BME280_temperature;BME280_humidity;BME280_pressure;Samples;Min_cycle;Max_cycle;Signal;HPM_P1;HPM_P2
2021/09/14 00:00:29;;;;;;;24.17;21.67;;;;;23.00;100525.00;;;;2062845;28;20214;-56
2021/09/14 00:01:29;;;;;;;27.37;21.97;;;;;23.00;100525.00;;;;2070198;28;20217;-57
2021/09/14 00:02:30;;;;;;;26.10;22.43;;;;;23.00;100519.00;;;;2067220;28;20306;-54
2021/09/14 00:03:30;;;;;;;23.73;21.20;;;;;23.00;100520.00;;;;2063110;28;20931;-56
2021/09/14 00:04:31;;;;;;;24.67;20.57;;;;;23.00;100516.00;;;;2061834;28;21926;-57
2021/09/14 00:05:31;;;;;;;24.13;20.13;;;;;23.00;100522.00;;;;2064005;28;20318;-57
2021/09/14 00:06:34;;;;;;;21.97;19.60;;;;;23.00;100516.00;;;;2066787;28;20290;-57
2021/09/14 00:07:35;;;;;;;22.40;20.05;;;;;23.00;100524.00;;;;2063048;28;20269;-56
2021/09/14 00:08:35;;;;;;;22.50;19.43;;;;;23.00;100520.00;;;;2063299;28;20203;-55
2021/09/14 00:09:36;;;;;;;24.17;20.70;;;;;23.00;100510.00;;;;2070819;28;20217;-56
2021/09/14 00:10:36;;;;;;;23.33;18.73;;;;;23.00;100519.00;;;;2070529;28;20214;-55
2021/09/14 00:11:37;;;;;;;21.87;18.43;;;;;23.00;100514.00;;;;2070231;28;20206;-56
2021/09/14 00:12:37;;;;;;;21.40;19.10;;;;;23.00;100517.00;;;;2071192;28;20217;-57
2021/09/14 00:13:37;;;;;;;20.97;18.70;;;;;23.00;100518.00;;;;2071055;28;20226;-56
2021/09/14 00:14:38;;;;;;;22.27;18.63;;;;;23.00;100516.00;;;;2071057;28;20264;-55
2021/09/14 00:15:38;;;;;;;20.50;18.10;;;;;23.00;100517.00;;;;2071363;28;20260;-54
2021/09/14 00:16:39;;;;;;;19.07;17.07;;;;;23.00;100518.00;;;;2071417;28;20218;-55
2021/09/14 00:17:39;;;;;;;20.17;17.10;;;;;22.90;100513.00;;;;2067156;28;20301;-57
2021/09/14 00:18:40;;;;;;;19.87;17.77;;;;;22.90;100524.00;;;;2071213;28;20206;-56
2021/09/14 00:19:40;;;;;;;19.47;17.43;;;;;22.90;100512.00;;;;2070744;28;20202;-55
2021/09/14 00:20:40;;;;;;;18.60;16.63;;;;;23.00;100512.00;;;;2070744;28;20340;-54
2021/09/14 00:21:41;;;;;;;17.90;16.00;;;;;23.00;100515.00;;;;2071410;28;20220;-54
2021/09/14 00:22:41;;;;;;;17.33;15.60;;;;;23.00;100513.00;;;;2065668;28;20603;-55
2021/09/14 00:23:41;;;;;;;17.83;14.60;;;;;23.00;100519.00;;;;2063040;28;20211;-57
2021/09/14 00:24:42;;;;;;;19.30;16.70;;;;;22.90;100519.00;;;;2069001;28;20230;-54
2021/09/14 00:25:42;;;;;;;18.93;15.33;;;;;23.00;100525.00;;;;2064183;28;20215;-57
2021/09/14 00:26:42;;;;;;;18.87;15.17;;;;;23.00;100516.00;;;;2062948;28;20218;-54
2021/09/14 00:27:43;;;;;;;17.90;15.50;;;;;23.00;100519.00;;;;2066706;28;20272;-56
2021/09/14 00:28:43;;;;;;;16.40;14.70;;;;;23.00;100507.00;;;;2059083;28;20215;-56
2021/09/14 00:29:44;;;;;;;16.80;14.97;;;;;23.00;100511.00;;;;2067766;28;20612;-55
2021/09/14 00:30:44;;;;;;;16.97;14.67;;;;;22.90;100514.00;;;;2071047;28;21297;-54
2021/09/14 00:31:45;;;;;;;17.57;14.43;;;;;22.90;100497.00;;;;2069037;28;20210;-55
2021/09/14 00:32:45;;;;;;;16.90;14.67;;;;;22.90;100520.00;;;;2064605;28;20211;-56
2021/09/14 00:33:46;;;;;;;16.27;14.53;;;;;22.90;100510.00;;;;2070153;28;20226;-56
2021/09/14 00:34:46;;;;;;;16.60;13.73;;;;;23.00;100516.00;;;;2066650;28;20219;-56
2021/09/14 00:35:46;;;;;;;15.57;13.80;;;;;23.00;100518.00;;;;2062444;28;20317;-57
2021/09/14 00:36:47;;;;;;;15.00;13.00;;;;;22.90;100514.00;;;;2060833;28;20229;-56
2021/09/14 00:37:47;;;;;;;14.97;12.70;;;;;22.90;100516.00;;;;2067442;28;20678;-55
2021/09/14 00:38:47;;;;;;;15.00;12.50;;;;;22.90;100515.00;;;;2070726;28;20603;-56
2021/09/14 00:39:48;;;;;;;14.33;12.80;;;;;22.90;100511.00;;;;2071153;28;20218;-56
2021/09/14 00:40:48;;;;;;;14.37;12.83;;;;;22.90;100510.00;;;;2065347;28;20302;-56
2021/09/14 00:41:49;;;;;;;15.20;12.40;;;;;23.00;100514.00;;;;2068893;28;20219;-55
2021/09/14 00:42:49;;;;;;;14.33;12.93;;;;;22.90;100515.00;;;;2068288;28;20223;-54
2021/09/14 00:43:57;;;;;;;13.90;12.50;;;;;23.00;100512.00;;;;2062904;28;20309;-56
2021/09/14 00:44:57;;;;;;;12.57;11.27;;;;;22.90;100509.00;;;;2063719;28;20250;-54
2021/09/14 00:45:58;;;;;;;12.40;11.10;;;;;23.00;100512.00;;;;2069655;28;20226;-55
2021/09/14 00:46:58;;;;;;;12.00;10.80;;;;;23.00;100508.00;;;;2070281;28;20230;-55
2021/09/14 00:47:58;;;;;;;12.43;11.13;;;;;23.00;100504.00;;;;2071756;28;20222;-55
2021/09/14 00:48:59;;;;;;;12.67;11.23;;;;;23.00;100503.00;;;;2064721;28;20218;-55
2021/09/14 00:49:59;;;;;;;12.97;11.63;;;;;22.90;100507.00;;;;2063453;28;20214;-56
2021/09/14 00:51:00;;;;;;;12.93;11.63;;;;;22.90;100509.00;;;;2063109;28;20215;-54
2021/09/14 00:52:00;;;;;;;11.83;10.73;;;;;22.90;100466.00;;;;2067238;28;20219;-56
2021/09/14 00:53:02;;;;;;;12.90;11.60;;;;;22.90;100508.00;;;;2070869;28;20752;-57
2021/09/14 00:54:02;;;;;;;11.23;10.10;;;;;22.90;100499.00;;;;2064891;28;20234;-55
2021/09/14 00:55:03;;;;;;;12.53;11.23;;;;;22.90;100500.00;;;;2062117;28;20600;-56
2021/09/14 00:56:04;;;;;;;10.57;9.55;;;;;23.00;100496.00;;;;2061861;28;20215;-54
2021/09/14 00:57:04;;;;;;;11.50;10.30;;;;;23.00;100493.00;;;;2062891;28;20250;-56
2021/09/14 00:58:05;;;;;;;11.67;10.47;;;;;22.90;100497.00;;;;2062349;28;20215;-54
2021/09/14 00:59:05;;;;;;;11.23;10.03;;;;;22.90;100493.00;;;;2062457;28;20211;-55
2021/09/14 01:00:06;;;;;;;10.53;9.53;;;;;22.90;100494.00;;;;2066760;28;20302;-55
2021/09/14 01:01:07;;;;;;;11.35;10.15;;;;;22.90;100485.00;;;;2065477;28;20229;-56
2021/09/14 01:02:07;;;;;;;10.90;9.80;;;;;22.90;100494.00;;;;2062324;28;20590;-56
2021/09/14 01:03:08;;;;;;;11.13;9.93;;;;;22.90;100490.00;;;;2062795;28;20263;-56
2021/09/14 01:04:08;;;;;;;10.23;9.17;;;;;22.90;100487.00;;;;2062478;28;20695;-56
2021/09/14 01:05:09;;;;;;;11.37;9.07;;;;;22.90;100483.00;;;;2066735;28;20829;-56
2021/09/14 01:06:10;;;;;;;11.20;10.03;;;;;22.90;100484.00;;;;2062325;28;20211;-57
2021/09/14 01:07:10;;;;;;;9.70;8.70;;;;;22.90;100494.00;;;;2062481;28;20469;-55
2021/09/14 01:08:10;;;;;;;10.73;9.40;;;;;22.90;100486.00;;;;2065685;28;20215;-56
2021/09/14 01:09:11;;;;;;;9.87;8.87;;;;;22.90;100482.00;;;;2057715;28;20217;-58
2021/09/14 01:10:11;;;;;;;10.00;8.90;;;;;22.90;100486.00;;;;2061432;28;20742;-57
2021/09/14 01:11:12;;;;;;;10.77;9.67;;;;;22.90;100498.00;;;;2065872;28;20271;-60
2021/09/14 01:12:12;;;;;;;10.10;9.20;;;;;22.90;100483.00;;;;2062864;28;20207;-55
2021/09/14 01:13:13;;;;;;;10.50;9.40;;;;;22.90;100483.00;;;;2065014;28;20560;-55
2021/09/14 01:14:13;;;;;;;9.23;8.33;;;;;22.90;100479.00;;;;2070189;28;20225;-58
2021/09/14 01:15:13;;;;;;;9.60;8.60;;;;;22.90;100478.00;;;;2070961;28;20214;-57
2021/09/14 01:16:14;;;;;;;9.77;8.83;;;;;22.90;100485.00;;;;2070421;28;20210;-55
2021/09/14 01:17:14;;;;;;;9.77;8.20;;;;;22.90;100482.00;;;;2070667;28;20577;-54
2021/09/14 01:18:15;;;;;;;8.30;7.50;;;;;22.90;100489.00;;;;2066259;28;20294;-55
2021/09/14 01:19:15;;;;;;;8.10;7.40;;;;;22.90;100479.00;;;;2062871;28;20218;-54
2021/09/14 01:20:16;;;;;;;8.53;7.73;;;;;22.80;100482.00;;;;2054506;28;20692;-57
2021/09/14 01:21:20;;;;;;;9.90;8.60;;;;;22.80;100488.00;;;;2054613;28;20462;-55
2021/09/14 01:22:25;;;;;;;8.88;8.07;;;;;22.80;100484.00;;;;2063256;28;20207;-54
2021/09/14 01:23:26;;;;;;;8.20;7.40;;;;;22.70;100484.00;;;;2067127;28;20210;-56
2021/09/14 01:24:26;;;;;;;8.33;7.53;;;;;22.80;100492.00;;;;2066879;28;20219;-56
2021/09/14 01:25:26;;;;;;;7.90;7.13;;;;;22.80;100501.00;;;;2062225;28;20327;-54
2021/09/14 01:26:27;;;;;;;8.40;7.60;;;;;22.80;100491.00;;;;2063979;28;20211;-54
2021/09/14 01:27:27;;;;;;;8.00;7.20;;;;;22.90;100491.00;;;;2070552;28;20230;-56
2021/09/14 01:28:28;;;;;;;7.67;6.97;;;;;22.90;100486.00;;;;2070694;28;20206;-56
2021/09/14 01:30:47;;;;;;;7.72;7.00;;;;;22.90;100493.00;;;;2064741;28;20211;-53
2021/09/14 01:31:47;;;;;;;7.50;6.80;;;;;22.80;100488.00;;;;2070382;28;20206;-56
2021/09/14 01:32:50;;;;;;;7.60;6.90;;;;;22.90;100487.00;;;;2070871;28;20213;-56
2021/09/14 01:33:51;;;;;;;8.07;7.38;;;;;22.80;100483.00;;;;2063891;28;20258;-56
2021/09/14 01:34:51;;;;;;;7.97;6.85;;;;;22.80;100492.00;;;;2065288;28;20245;-55
2021/09/14 01:35:53;;;;;;;8.13;6.90;;;;;22.80;100489.00;;;;2061231;28;20226;-56
2021/09/14 01:36:54;;;;;;;7.13;6.53;;;;;22.90;100487.00;;;;2067477;28;20217;-56
2021/09/14 01:37:54;;;;;;;7.50;6.70;;;;;22.90;100489.00;;;;2063882;28;20241;-55
2021/09/14 01:38:54;;;;;;;7.57;6.77;;;;;22.80;100481.00;;;;2062723;28;20234;-55
2021/09/14 01:39:55;;;;;;;7.03;6.33;;;;;22.90;100485.00;;;;2069655;28;20226;-54
2021/09/14 01:40:56;;;;;;;7.30;6.60;;;;;22.90;100484.00;;;;2064082;28;20219;-53
2021/09/14 01:41:57;;;;;;;7.32;6.63;;;;;22.90;100485.00;;;;2062987;28;20770;-55
2021/09/14 01:42:57;;;;;;;6.83;6.23;;;;;22.90;100480.00;;;;2066744;28;20221;-54
2021/09/14 01:43:57;;;;;;;6.83;6.13;;;;;22.80;100486.00;;;;2063104;28;20379;-55
2021/09/14 01:44:58;;;;;;;7.27;6.57;;;;;22.80;100484.00;;;;2063475;28;20219;-54
2021/09/14 01:45:58;;;;;;;6.60;6.10;;;;;22.90;100489.00;;;;2067204;28;20218;-56
2021/09/14 01:46:59;;;;;;;7.13;6.30;;;;;22.90;100476.00;;;;2068974;28;20244;-55
2021/09/14 01:47:59;;;;;;;6.13;5.63;;;;;22.90;100485.00;;;;2062224;28;20310;-55
2021/09/14 01:49:00;;;;;;;6.43;5.83;;;;;22.90;100477.00;;;;2062209;28;20214;-56
2021/09/14 01:50:01;;;;;;;6.83;6.23;;;;;22.90;100481.00;;;;2066442;28;20694;-56
2021/09/14 01:51:02;;;;;;;5.72;5.22;;;;;22.80;100483.00;;;;2067148;28;20357;-55
2021/09/14 01:52:03;;;;;;;6.73;6.13;;;;;22.90;100484.00;;;;2067354;28;20213;-55
2021/09/14 01:53:04;;;;;;;6.40;5.67;;;;;22.80;100485.00;;;;2070918;28;20457;-54
2021/09/14 01:54:04;;;;;;;6.10;5.50;;;;;22.80;100491.00;;;;2069184;28;20230;-56
2021/09/14 01:55:07;;;;;;;6.00;5.50;;;;;22.80;100488.00;;;;2065361;28;20457;-55
2021/09/14 01:56:07;;;;;;;5.63;5.20;;;;;22.80;100489.00;;;;2065870;28;20229;-57
2021/09/14 01:57:09;;;;;;;6.67;6.07;;;;;22.90;100484.00;;;;2065362;28;20329;-54
2021/09/14 01:58:10;;;;;;;6.55;5.95;;;;;22.80;100489.00;;;;2070155;28;20222;-54
2021/09/14 01:59:13;;;;;;;6.47;5.90;;;;;22.90;100483.00;;;;2069597;28;20214;-56
2021/09/14 02:00:24;;;;;;;6.60;6.03;;;;;22.80;100489.00;;;;2066164;28;20472;-56
2021/09/14 02:01:35;;;;;;;5.60;5.10;;;;;22.80;100489.00;;;;2060248;28;20258;-54
2021/09/14 02:03:06;;;;;;;6.88;6.28;;;;;22.90;100486.00;;;;2066448;28;20249;-56
2021/09/14 02:04:17;;;;;;;6.43;5.82;;;;;22.80;100485.00;;;;2066523;28;20241;-58
2021/09/14 02:05:43;;;;;;;5.50;5.10;;;;;22.80;100485.00;;;;2064528;28;20214;-58
2021/09/14 02:41:54;;;;;;;4.05;3.75;;;;;22.70;100471.00;;;;2066540;28;20710;-57
2021/09/14 02:44:25;;;;;;;4.28;3.97;;;;;22.80;100473.00;;;;2064280;28;20738;-54
2021/09/14 02:58:45;;;;;;;4.32;4.00;;;;;22.80;100470.00;;;;2062575;28;20694;-56
2021/09/14 02:59:46;;;;;;;4.40;4.00;;;;;22.70;100466.00;;;;2064085;28;20724;-55
2021/09/14 03:00:46;;;;;;;4.60;4.20;;;;;22.70;100471.00;;;;2064203;28;20221;-55
2021/09/14 03:01:47;;;;;;;3.70;3.40;;;;;22.70;100470.00;;;;2070083;28;20232;-58
2021/09/14 03:02:49;;;;;;;4.10;3.80;;;;;22.70;100469.00;;;;2065519;28;20257;-57
2021/09/14 03:03:50;;;;;;;4.00;3.70;;;;;22.70;100471.00;;;;2064086;28;20309;-57
2021/09/14 03:04:50;;;;;;;4.50;4.10;;;;;22.70;100469.00;;;;2068300;28;20218;-57
2021/09/14 03:05:51;;;;;;;4.53;4.23;;;;;22.70;100470.00;;;;2065481;28;20746;-58
2021/09/14 03:06:51;;;;;;;3.90;3.60;;;;;22.70;100464.00;;;;2056977;28;20221;-57
2021/09/14 03:07:51;;;;;;;4.20;3.90;;;;;22.70;100467.00;;;;2077039;28;20213;-56
2021/09/14 03:08:52;;;;;;;4.17;3.80;;;;;22.70;100466.00;;;;2076422;28;20217;-58
2021/09/14 03:09:52;;;;;;;4.07;3.77;;;;;22.70;100463.00;;;;2072068;28;20218;-55
2021/09/14 03:10:52;;;;;;;4.20;3.90;;;;;22.70;100465.00;;;;2072073;28;20317;-57
2021/09/14 03:11:53;;;;;;;4.67;4.33;;;;;22.70;100467.00;;;;2071981;28;20218;-58
2021/09/14 03:12:53;;;;;;;4.20;3.80;;;;;22.70;100466.00;;;;2072018;28;20218;-56
2021/09/14 03:13:55;;;;;;;4.00;3.70;;;;;22.70;100463.00;;;;2071880;28;20222;-58
2021/09/14 03:14:55;;;;;;;5.63;3.70;;;;;22.70;100471.00;;;;2071546;28;20221;-57
2021/09/14 03:15:56;;;;;;;4.27;3.97;;;;;22.70;100467.00;;;;2072293;28;20222;-56
2021/09/14 03:16:56;;;;;;;3.40;3.20;;;;;22.70;100477.00;;;;2071814;28;20221;-56
2021/09/14 03:17:57;;;;;;;4.63;4.10;;;;;22.70;100463.00;;;;2072081;28;20226;-57
2021/09/14 03:18:57;;;;;;;4.10;3.80;;;;;22.70;100470.00;;;;2071358;28;20574;-57
2021/09/14 03:19:58;;;;;;;4.47;3.83;;;;;22.70;100465.00;;;;2072024;28;20710;-58
2021/09/14 03:20:58;;;;;;;4.00;3.70;;;;;22.70;100465.00;;;;2071752;28;20276;-56
2021/09/14 03:21:58;;;;;;;3.80;3.57;;;;;22.70;100462.00;;;;2071939;28;20214;-55
2021/09/14 03:22:59;;;;;;;4.20;3.90;;;;;22.70;100465.00;;;;2072001;28;20698;-55
2021/09/14 03:23:59;;;;;;;4.20;3.90;;;;;22.70;100458.00;;;;2072110;28;20218;-56
2021/09/14 03:24:59;;;;;;;4.20;3.90;;;;;22.70;100452.00;;;;2070411;28;20221;-57
2021/09/14 03:26:00;;;;;;;3.90;3.60;;;;;22.80;100453.00;;;;2072048;28;20218;-57
2021/09/14 03:27:00;;;;;;;3.30;3.10;;;;;22.70;100457.00;;;;2069195;28;20209;-56
2021/09/14 03:28:00;;;;;;;3.77;3.47;;;;;22.70;100452.00;;;;2071808;28;20210;-57
2021/09/14 03:29:01;;;;;;;4.10;3.80;;;;;22.70;100454.00;;;;2070249;28;20221;-55
2021/09/14 03:30:01;;;;;;;3.47;3.27;;;;;22.70;100451.00;;;;2070843;28;20218;-60
2021/09/14 03:31:03;;;;;;;4.27;3.97;;;;;22.70;100447.00;;;;2071407;28;20225;-57
2021/09/14 03:32:03;;;;;;;4.40;4.10;;;;;22.70;100443.00;;;;2070567;28;20225;-57
2021/09/14 03:33:04;;;;;;;4.00;3.70;;;;;22.50;100449.00;;;;2070808;28;20590;-55
2021/09/14 03:34:04;;;;;;;3.77;3.47;;;;;22.70;100452.00;;;;2071505;28;20854;-57
2021/09/14 03:35:05;;;;;;;3.80;3.50;;;;;22.70;100444.00;;;;2069918;28;20581;-54
2021/09/14 03:36:06;;;;;;;3.80;3.50;;;;;22.70;100448.00;;;;2063664;28;20272;-58
2021/09/14 03:37:06;;;;;;;3.90;3.60;;;;;22.70;100450.00;;;;2063619;28;21042;-58
2021/09/14 03:38:07;;;;;;;3.63;3.33;;;;;22.70;100456.00;;;;2063889;28;20226;-58
2021/09/14 03:39:07;;;;;;;3.53;3.33;;;;;22.70;100448.00;;;;2058253;28;20556;-55
2021/09/14 03:40:08;;;;;;;4.10;3.80;;;;;22.70;100447.00;;;;2063542;28;20211;-56
2021/09/14 03:41:09;;;;;;;3.90;3.60;;;;;22.70;100453.00;;;;2055026;28;20296;-57
2021/09/14 03:42:09;;;;;;;4.30;3.90;;;;;22.70;100449.00;;;;2054985;28;20262;-55
2021/09/14 03:43:10;;;;;;;3.97;3.67;;;;;22.70;100444.00;;;;2063135;28;20215;-57
2021/09/14 03:44:10;;;;;;;3.65;3.35;;;;;22.70;100444.00;;;;2063862;28;20714;-57
2021/09/14 03:45:11;;;;;;;4.30;3.90;;;;;22.70;100444.00;;;;2063893;28;20214;-58
2021/09/14 03:46:11;;;;;;;4.17;3.87;;;;;22.70;100437.00;;;;2063866;28;20198;-54
2021/09/14 03:47:11;;;;;;;4.10;3.80;;;;;22.70;100432.00;;;;2063500;28;20640;-56
2021/09/14 03:48:12;;;;;;;3.97;3.67;;;;;22.70;100434.00;;;;2063799;28;20207;-57
2021/09/14 03:49:13;;;;;;;3.72;3.42;;;;;22.70;100433.00;;;;2063339;28;20213;-58
2021/09/14 03:50:13;;;;;;;4.00;3.63;;;;;22.70;100427.00;;;;2063087;28;20215;-54
2021/09/14 03:51:14;;;;;;;4.43;4.07;;;;;22.70;100428.00;;;;2063118;28;20846;-54
2021/09/14 03:52:15;;;;;;;3.73;3.50;;;;;22.80;100426.00;;;;2062948;28;20219;-56
2021/09/14 03:53:16;;;;;;;4.00;3.70;;;;;22.70;100427.00;;;;2062968;28;20257;-57
2021/09/14 03:54:16;;;;;;;3.90;3.60;;;;;22.70;100423.00;;;;2063683;28;20203;-58
2021/09/14 03:55:16;;;;;;;3.63;3.33;;;;;22.70;100421.00;;;;2063610;28;20446;-57
2021/09/14 03:56:17;;;;;;;4.30;4.00;;;;;22.70;100419.00;;;;2063832;28;20203;-57
2021/09/14 03:57:17;;;;;;;3.60;3.37;;;;;22.70;100418.00;;;;2063723;28;20282;-58
2021/09/14 03:58:17;;;;;;;3.53;3.23;;;;;22.70;100417.00;;;;2063774;28;20554;-58
2021/09/14 03:59:18;;;;;;;3.40;3.03;;;;;22.70;100417.00;;;;2063352;28;20210;-56
2021/09/14 04:00:19;;;;;;;3.60;3.30;;;;;22.70;100413.00;;;;2063792;28;20250;-57
2021/09/14 04:01:19;;;;;;;3.40;3.20;;;;;22.70;100427.00;;;;2063810;28;20461;-58
2021/09/14 04:03:38;;;;;;;3.97;3.67;;;;;22.70;100423.00;;;;2063520;28;20717;-57
2021/09/14 04:05:58;;;;;;;3.55;3.35;;;;;22.70;100424.00;;;;2066372;28;20733;-57
2021/09/14 04:09:07;;;;;;;4.10;3.80;;;;;22.70;100418.00;;;;2062890;28;20691;-56
2021/09/14 04:10:08;;;;;;;3.70;3.40;;;;;22.70;100409.00;;;;2057819;28;20221;-57
2021/09/14 04:11:08;;;;;;;4.00;3.70;;;;;22.70;100413.00;;;;2070707;28;20654;-57
2021/09/14 04:12:09;;;;;;;3.57;3.27;;;;;22.70;100424.00;;;;2066839;28;20219;-57
2021/09/14 04:13:09;;;;;;;3.20;3.00;;;;;22.70;100420.00;;;;2065997;28;20265;-58
2021/09/14 04:14:10;;;;;;;4.17;3.87;;;;;22.70;100418.00;;;;2071429;28;20210;-58
2021/09/14 04:15:10;;;;;;;4.00;3.70;;;;;22.70;100421.00;;;;2071656;28;20219;-57
2021/09/14 04:16:11;;;;;;;3.93;3.63;;;;;22.70;100424.00;;;;2071607;28;20686;-57
2021/09/14 04:17:11;;;;;;;3.77;3.47;;;;;22.70;100432.00;;;;2071341;28;20215;-57
2021/09/14 04:18:11;;;;;;;3.80;3.50;;;;;22.70;100423.00;;;;2070811;28;20694;-56
2021/09/14 04:19:12;;;;;;;3.97;3.67;;;;;22.70;100419.00;;;;2062270;28;20203;-58
2021/09/14 04:20:13;;;;;;;4.20;3.90;;;;;22.60;100416.00;;;;2063277;28;20237;-55
2021/09/14 04:21:13;;;;;;;3.30;3.00;;;;;22.70;100417.00;;;;2063517;28;20289;-59
2021/09/14 04:22:14;;;;;;;3.47;3.27;;;;;22.70;100413.00;;;;2061667;28;20577;-57
2021/09/14 04:23:14;;;;;;;4.20;3.90;;;;;22.60;100412.00;;;;2062094;28;20225;-58
2021/09/14 04:24:14;;;;;;;4.23;3.93;;;;;22.60;100418.00;;;;2070819;28;20199;-54
2021/09/14 04:25:15;;;;;;;4.00;3.70;;;;;22.70;100412.00;;;;2070790;28;20237;-56
2021/09/14 04:26:15;;;;;;;3.73;3.37;;;;;22.70;100412.00;;;;2070368;28;20214;-57
2021/09/14 04:27:15;;;;;;;3.90;3.50;;;;;22.70;100406.00;;;;2071349;28;20309;-58
2021/09/14 04:28:16;;;;;;;3.60;3.30;;;;;22.60;100406.00;;;;2071300;28;20725;-56
2021/09/14 04:29:16;;;;;;;3.73;3.43;;;;;22.60;100408.00;;;;2070633;28;20269;-58
2021/09/14 04:30:17;;;;;;;3.27;3.07;;;;;22.70;100406.00;;;;2070836;28;20206;-56
2021/09/14 04:31:17;;;;;;;3.63;3.43;;;;;22.70;100407.00;;;;2069524;28;20215;-58
2021/09/14 04:32:17;;;;;;;3.73;3.30;;;;;22.70;100410.00;;;;2071000;28;20214;-57
2021/09/14 04:33:18;;;;;;;3.37;3.17;;;;;22.60;100413.00;;;;2063186;28;20227;-57
2021/09/14 04:34:19;;;;;;;4.53;3.97;;;;;22.60;100403.00;;;;2062528;28;20219;-54
2021/09/14 04:35:19;;;;;;;4.20;3.90;;;;;22.70;100405.00;;;;2067974;28;20222;-55
2021/09/14 04:36:20;;;;;;;5.23;4.27;;;;;22.70;100411.00;;;;2062137;28;20619;-57
2021/09/14 04:37:20;;;;;;;4.07;3.67;;;;;22.80;100407.00;;;;2062661;28;20742;-57
2021/09/14 04:38:20;;;;;;;4.43;4.00;;;;;22.80;100402.00;;;;2062887;28;20325;-57
2021/09/14 04:39:21;;;;;;;4.37;3.97;;;;;22.80;100404.00;;;;2058725;28;20215;-57
2021/09/14 04:40:21;;;;;;;4.03;3.63;;;;;22.90;100402.00;;;;2065680;28;20578;-53
2021/09/14 04:41:21;;;;;;;4.03;3.73;;;;;22.80;100403.00;;;;2070979;28;20609;-56
2021/09/14 04:42:22;;;;;;;4.57;4.17;;;;;22.80;100403.00;;;;2070797;28;20297;-56
2021/09/14 04:43:22;;;;;;;4.13;3.73;;;;;22.80;100401.00;;;;2070914;28;20222;-57
2021/09/14 04:44:23;;;;;;;4.10;3.20;;;;;22.80;100399.00;;;;2071067;28;20326;-57
2021/09/14 04:45:24;;;;;;;4.70;4.20;;;;;22.80;100406.00;;;;2066035;28;20207;-56
2021/09/14 04:46:24;;;;;;;4.30;3.90;;;;;22.80;100398.00;;;;2062750;28;20458;-57
2021/09/14 04:47:25;;;;;;;4.17;3.77;;;;;22.80;100400.00;;;;2062665;28;20214;-56
2021/09/14 04:48:25;;;;;;;4.60;4.20;;;;;22.80;100401.00;;;;2065776;28;20883;-54
2021/09/14 04:49:25;;;;;;;4.10;3.70;;;;;22.80;100388.00;;;;2069833;28;20233;-55
2021/09/14 04:50:26;;;;;;;5.17;3.70;;;;;22.80;100395.00;;;;2062774;28;20211;-56
2021/09/14 04:51:27;;;;;;;3.93;3.63;;;;;22.90;100388.00;;;;2062141;28;20687;-57
2021/09/14 04:52:27;;;;;;;4.50;4.10;;;;;22.80;100385.00;;;;2062548;28;20497;-58
2021/09/14 04:53:27;;;;;;;4.90;4.17;;;;;22.80;100388.00;;;;2062755;28;20207;-55
2021/09/14 04:54:28;;;;;;;4.30;3.90;;;;;22.80;100385.00;;;;2062492;28;20203;-57
2021/09/14 04:55:28;;;;;;;4.43;3.60;;;;;22.70;100381.00;;;;2062073;28;20660;-58
2021/09/14 04:56:28;;;;;;;6.80;3.93;;;;;22.80;100390.00;;;;2062567;28;20361;-56
2021/09/14 04:57:29;;;;;;;4.37;3.70;;;;;22.70;100383.00;;;;2062106;28;20687;-57
2021/09/14 04:58:32;;;;;;;4.03;3.73;;;;;22.80;100385.00;;;;2062374;28;20210;-54
2021/09/14 04:59:33;;;;;;;5.00;3.97;;;;;22.80;100387.00;;;;2061039;28;20211;-58
2021/09/14 05:00:33;;;;;;;4.10;3.80;;;;;22.80;100391.00;;;;2061927;28;20222;-57
2021/09/14 05:01:33;;;;;;;3.97;3.67;;;;;22.80;100388.00;;;;2062845;28;20269;-55
2021/09/14 05:02:34;;;;;;;4.50;3.63;;;;;22.80;100387.00;;;;2062882;28;20317;-55
2021/09/14 05:03:34;;;;;;;4.47;3.97;;;;;22.70;100388.00;;;;2062945;28;20238;-58
2021/09/14 05:04:35;;;;;;;4.00;3.70;;;;;22.80;100389.00;;;;2065332;28;20641;-57
2021/09/14 05:05:35;;;;;;;3.60;3.30;;;;;22.80;100382.00;;;;2066576;28;20218;-57
2021/09/14 05:06:35;;;;;;;4.50;3.17;;;;;22.70;100380.00;;;;2061766;28;20269;-57
2021/09/14 05:07:36;;;;;;;4.00;3.70;;;;;22.70;100384.00;;;;2061072;28;20280;-56
2021/09/14 05:08:36;;;;;;;3.73;3.43;;;;;22.70;100379.00;;;;2057295;28;20215;-56
2021/09/14 05:09:37;;;;;;;3.73;3.47;;;;;22.70;100381.00;;;;2060382;28;20719;-57
2021/09/14 05:10:38;;;;;;;3.80;3.50;;;;;22.70;100375.00;;;;2066329;28;20217;-57
2021/09/14 05:11:38;;;;;;;4.28;3.95;;;;;22.70;100376.00;;;;2070193;28;20232;-57
2021/09/14 05:12:39;;;;;;;4.00;3.70;;;;;22.70;100369.00;;;;2065671;28;20229;-56
2021/09/14 05:13:40;;;;;;;3.93;3.50;;;;;22.60;100377.00;;;;2069806;28;20226;-57
2021/09/14 05:14:40;;;;;;;3.65;3.35;;;;;22.70;100376.00;;;;2063500;28;20603;-56
2021/09/14 05:15:40;;;;;;;4.97;4.57;;;;;22.70;100374.00;;;;2061138;28;20218;-57
2021/09/14 05:16:41;;;;;;;6.40;5.80;;;;;22.70;100374.00;;;;2061659;28;20226;-57
2021/09/14 05:17:41;;;;;;;6.87;5.97;;;;;22.70;100372.00;;;;2061653;28;20227;-58
2021/09/14 05:18:46;;;;;;;7.00;6.40;;;;;22.70;100374.00;;;;2061553;28;20226;-57
2021/09/14 05:19:48;;;;;;;9.45;8.45;;;;;22.50;100379.00;;;;2059456;28;20699;-57
2021/09/14 05:20:50;;;;;;;15.02;13.25;;;;;22.60;100379.00;;;;2061045;28;20823;-57
2021/09/14 05:21:52;;;;;;;19.30;16.52;;;;;22.60;100371.00;;;;2061636;28;20219;-56
2021/09/14 05:23:02;;;;;;;19.67;16.80;;;;;22.60;100378.00;;;;2061481;28;20242;-57
2021/09/14 05:24:03;;;;;;;21.70;19.08;;;;;22.70;100363.00;;;;2059840;28;20702;-56
2021/09/14 05:25:04;;;;;;;26.50;22.53;;;;;22.70;100370.00;;;;2059555;28;20223;-56
2021/09/14 05:26:05;;;;;;;34.40;28.27;;;;;22.70;100376.00;;;;2062037;28;20222;-54
2021/09/14 05:27:05;;;;;;;36.40;30.33;;;;;22.70;100375.00;;;;2060319;28;20634;-55
2021/09/14 05:28:06;;;;;;;39.03;32.83;;;;;22.70;100338.00;;;;2061837;28;20730;-57
2021/09/14 05:29:06;;;;;;;44.90;37.80;;;;;22.70;100367.00;;;;2068423;28;20211;-57
2021/09/14 05:30:07;;;;;;;37.90;32.10;;;;;22.70;100375.00;;;;2069058;28;20298;-55
2021/09/14 05:31:08;;;;;;;50.97;38.83;;;;;22.70;100380.00;;;;2061930;28;20268;-58
2021/09/14 05:32:10;;;;;;;48.10;40.20;;;;;22.70;100384.00;;;;2072653;28;21410;-56
2021/09/14 05:33:10;;;;;;;48.55;39.42;;;;;22.70;100380.00;;;;2057733;28;20214;-57
2021/09/14 05:34:12;;;;;;;50.70;39.93;;;;;22.70;100378.00;;;;2060926;28;20231;-54
2021/09/14 05:35:13;;;;;;;54.45;42.05;;;;;22.70;100381.00;;;;2064285;28;20219;-57
2021/09/14 05:36:13;;;;;;;46.33;38.70;;;;;22.70;100403.00;;;;2061144;28;20215;-58
2021/09/14 05:37:14;;;;;;;53.30;41.20;;;;;22.70;100403.00;;;;2061120;28;20238;-56
2021/09/14 05:38:15;;;;;;;51.03;41.33;;;;;22.70;100384.00;;;;2060672;28;20288;-58
2021/09/14 05:39:16;;;;;;;51.37;40.90;;;;;22.70;100381.00;;;;2062115;28;20219;-56
2021/09/14 05:40:16;;;;;;;53.42;42.00;;;;;22.70;100383.00;;;;2068602;28;20457;-58
2021/09/14 05:41:17;;;;;;;48.23;40.10;;;;;22.70;100382.00;;;;2070109;28;20221;-56
2021/09/14 05:42:17;;;;;;;48.50;39.33;;;;;22.70;100378.00;;;;2070224;28;20217;-56
2021/09/14 05:43:18;;;;;;;47.83;38.90;;;;;22.70;100377.00;;;;2069903;28;20301;-57
2021/09/14 05:44:18;;;;;;;45.13;38.07;;;;;22.70;100374.00;;;;2069916;28;20206;-58
2021/09/14 05:45:19;;;;;;;46.77;36.40;;;;;22.70;100373.00;;;;2070585;28;20213;-55
2021/09/14 05:46:20;;;;;;;46.23;37.03;;;;;22.70;100370.00;;;;2070209;28;20237;-55
2021/09/14 05:47:20;;;;;;;46.83;38.40;;;;;22.60;100375.00;;;;2070279;28;20214;-58
2021/09/14 05:48:21;;;;;;;48.33;37.20;;;;;22.70;100376.00;;;;2062456;28;20798;-58
2021/09/14 05:49:21;;;;;;;43.00;36.30;;;;;22.70;100379.00;;;;2058179;28;20217;-60
2021/09/14 05:50:21;;;;;;;42.40;35.90;;;;;22.70;100386.00;;;;2060967;28;20214;-56
2021/09/14 05:51:22;;;;;;;43.90;34.60;;;;;22.60;100384.00;;;;2061706;28;20218;-60
2021/09/14 05:52:22;;;;;;;42.80;33.93;;;;;22.60;100379.00;;;;2060082;28;20215;-60
2021/09/14 05:53:23;;;;;;;38.27;32.67;;;;;22.60;100390.00;;;;2061985;28;20225;-59
2021/09/14 05:54:23;;;;;;;38.97;31.83;;;;;22.60;100389.00;;;;2061255;28;20568;-58